sensor_id;sensor_type;location;lat;lon;timestamp;pressure;altitude;pressure_sealevel;temperature;humidity
8160;BME280;27404;52.398;9.646;2022-09-09T00:04:37;100164.00;;;12.06;100.00
8160;BME280;27404;52.398;9.646;2022-09-09T00:10:03;100162.00;;;12.02;100.00
8160;BME280;27404;52.398;9.646;2022-09-09T00:15:12;100156.78;;;12.00;100.00
8160;BME280;27404;52.398;9.646;2022-09-09T00:17:51;100170.22;;;12.02;100.00
8160;BME280;27404;52.398;9.646;2022-09-09T00:20:38;100156.19;;;11.98;100.00
8160;BME280;27404;52.398;9.646;2022-09-09T00:23:13;100154.06;;;12.00;100.00
8160;BME280;27404;52.398;9.646;2022-09-09T00:28:27;100158.06;;;11.92;100.00
8160;BME280;27404;52.398;9.646;2022-09-09T00:30:56;100160.22;;;11.90;100.00
8160;BME280;27404;52.398;9.646;2022-09-09T00:33:24;100161.56;;;11.88;100.00
8160;BME280;27404;52.398;9.646;2022-09-09T00:35:59;100161.56;;;11.88;100.00
8160;BME280;27404;52.398;9.646;2022-09-09T00:38:34;100157.94;;;11.82;100.00
8160;BME280;27404;52.398;9.646;2022-09-09T00:41:11;100155.50;;;11.85;100.00
8160;BME280;27404;52.398;9.646;2022-09-09T00:43:40;100154.94;;;11.83;100.00
8160;BME280;27404;52.398;9.646;2022-09-09T00:52:05;100154.34;;;11.81;100.00
8160;BME280;27404;52.398;9.646;2022-09-09T00:54:48;100152.63;;;11.75;100.00
8160;BME280;27404;52.398;9.646;2022-09-09T00:57:27;100156.16;;;11.70;100.00
8160;BME280;27404;52.398;9.646;2022-09-09T01:00:25;100155.50;;;11.63;100.00
8160;BME280;27404;52.398;9.646;2022-09-09T01:03:08;100156.31;;;11.64;100.00
8160;BME280;27404;52.398;9.646;2022-09-09T01:11:24;100161.69;;;11.53;100.00
8160;BME280;27404;52.398;9.646;2022-09-09T01:14:01;100156.78;;;11.55;100.00
8160;BME280;27404;52.398;9.646;2022-09-09T01:16:29;100154.88;;;11.56;100.00
8160;BME280;27404;52.398;9.646;2022-09-09T01:18:57;100154.63;;;11.58;100.00
8160;BME280;27404;52.398;9.646;2022-09-09T01:26:54;100145.06;;;11.60;100.00
8160;BME280;27404;52.398;9.646;2022-09-09T01:29:22;100146.22;;;11.64;100.00
8160;BME280;27404;52.398;9.646;2022-09-09T01:32:02;100141.16;;;11.78;100.00
8160;BME280;27404;52.398;9.646;2022-09-09T01:34:44;100145.63;;;11.84;100.00
8160;BME280;27404;52.398;9.646;2022-09-09T01:37:11;100133.53;;;11.80;100.00
8160;BME280;27404;52.398;9.646;2022-09-09T01:39:39;100142.78;;;11.74;100.00
8160;BME280;27404;52.398;9.646;2022-09-09T01:42:08;100138.44;;;11.78;100.00
8160;BME280;27404;52.398;9.646;2022-09-09T01:44:34;100154.81;;;11.73;100.00
8160;BME280;27404;52.398;9.646;2022-09-09T01:47:01;100144.34;;;11.70;100.00
8160;BME280;27404;52.398;9.646;2022-09-09T01:49:26;100146.97;;;11.60;100.00
8160;BME280;27404;52.398;9.646;2022-09-09T01:51:54;100147.59;;;11.67;100.00
8160;BME280;27404;52.398;9.646;2022-09-09T01:54:23;100142.13;;;11.67;100.00
8160;BME280;27404;52.398;9.646;2022-09-09T02:00:03;100139.66;;;11.65;100.00
8160;BME280;27404;52.398;9.646;2022-09-09T02:03:14;100156.91;;;11.66;100.00
8160;BME280;27404;52.398;9.646;2022-09-09T02:08:49;100152.75;;;11.85;100.00
8160;BME280;27404;52.398;9.646;2022-09-09T02:11:17;100147.56;;;11.84;100.00
8160;BME280;27404;52.398;9.646;2022-09-09T02:13:45;100152.25;;;11.89;100.00
8160;BME280;27404;52.398;9.646;2022-09-09T02:19:42;100155.06;;;11.94;100.00
8160;BME280;27404;52.398;9.646;2022-09-09T02:22:11;100161.88;;;11.91;100.00
8160;BME280;27404;52.398;9.646;2022-09-09T02:24:39;100148.38;;;11.84;100.00
8160;BME280;27404;52.398;9.646;2022-09-09T02:27:07;100142.06;;;11.84;100.00
8160;BME280;27404;52.398;9.646;2022-09-09T02:29:37;100148.38;;;11.84;100.00
8160;BME280;27404;52.398;9.646;2022-09-09T02:32:06;100141.63;;;11.92;100.00
8160;BME280;27404;52.398;9.646;2022-09-09T02:34:36;100140.00;;;11.96;100.00
8160;BME280;27404;52.398;9.646;2022-09-09T02:37:06;100140.34;;;12.00;100.00
8160;BME280;27404;52.398;9.646;2022-09-09T02:39:33;100137.78;;;11.93;100.00
8160;BME280;27404;52.398;9.646;2022-09-09T02:41:58;100137.16;;;11.86;100.00
8160;BME280;27404;52.398;9.646;2022-09-09T02:44:25;100139.41;;;11.89;100.00
8160;BME280;27404;52.398;9.646;2022-09-09T02:49:59;100137.53;;;11.95;100.00
8160;BME280;27404;52.398;9.646;2022-09-09T02:53:07;100137.09;;;12.03;100.00
8160;BME280;27404;52.398;9.646;2022-09-09T02:55:48;100147.22;;;12.03;100.00
8160;BME280;27404;52.398;9.646;2022-09-09T02:58:16;100145.56;;;12.02;100.00
8160;BME280;27404;52.398;9.646;2022-09-09T03:00:45;100140.72;;;12.09;100.00
8160;BME280;27404;52.398;9.646;2022-09-09T03:03:12;100146.56;;;12.18;100.00
8160;BME280;27404;52.398;9.646;2022-09-09T03:05:37;100149.03;;;12.19;100.00
8160;BME280;27404;52.398;9.646;2022-09-09T03:08:04;100146.81;;;12.16;100.00
8160;BME280;27404;52.398;9.646;2022-09-09T03:10:31;100155.09;;;12.21;100.00
8160;BME280;27404;52.398;9.646;2022-09-09T03:12:57;100155.88;;;12.17;100.00
8160;BME280;27404;52.398;9.646;2022-09-09T03:15:22;100147.16;;;12.20;100.00
8160;BME280;27404;52.398;9.646;2022-09-09T03:17:48;100160.91;;;12.25;100.00
8160;BME280;27404;52.398;9.646;2022-09-09T03:20:14;100159.03;;;12.31;100.00
8160;BME280;27404;52.398;9.646;2022-09-09T03:22:39;100159.03;;;12.31;100.00
8160;BME280;27404;52.398;9.646;2022-09-09T03:25:05;100152.47;;;12.32;100.00
8160;BME280;27404;52.398;9.646;2022-09-09T03:27:31;100153.03;;;12.34;100.00
8160;BME280;27404;52.398;9.646;2022-09-09T03:29:57;100151.66;;;12.36;100.00
8160;BME280;27404;52.398;9.646;2022-09-09T03:32:23;100162.13;;;12.39;100.00
8160;BME280;27404;52.398;9.646;2022-09-09T03:34:51;100161.31;;;12.39;100.00
8160;BME280;27404;52.398;9.646;2022-09-09T03:37:20;100161.53;;;12.37;100.00
8160;BME280;27404;52.398;9.646;2022-09-09T03:39:46;100150.06;;;12.40;100.00
8160;BME280;27404;52.398;9.646;2022-09-09T03:42:15;100148.94;;;12.36;100.00
8160;BME280;27404;52.398;9.646;2022-09-09T03:44:44;100149.19;;;12.35;100.00
8160;BME280;27404;52.398;9.646;2022-09-09T03:47:19;100148.22;;;12.46;100.00
8160;BME280;27404;52.398;9.646;2022-09-09T03:49:47;100144.38;;;12.47;100.00
8160;BME280;27404;52.398;9.646;2022-09-09T03:52:14;100141.38;;;12.49;100.00
8160;BME280;27404;52.398;9.646;2022-09-09T03:54:40;100144.09;;;12.49;100.00
8160;BME280;27404;52.398;9.646;2022-09-09T03:57:06;100147.97;;;12.53;100.00
8160;BME280;27404;52.398;9.646;2022-09-09T03:59:32;100146.09;;;12.53;100.00
8160;BME280;27404;52.398;9.646;2022-09-09T04:01:57;100151.06;;;12.56;100.00
8160;BME280;27404;52.398;9.646;2022-09-09T04:04:24;100145.00;;;12.59;100.00
8160;BME280;27404;52.398;9.646;2022-09-09T04:06:52;100149.16;;;12.62;100.00
8160;BME280;27404;52.398;9.646;2022-09-09T04:09:17;100143.38;;;12.58;100.00
8160;BME280;27404;52.398;9.646;2022-09-09T04:11:43;100150.50;;;12.59;100.00
8160;BME280;27404;52.398;9.646;2022-09-09T04:14:08;100156.88;;;12.65;100.00
8160;BME280;27404;52.398;9.646;2022-09-09T04:16:34;100154.38;;;12.64;100.00
8160;BME280;27404;52.398;9.646;2022-09-09T04:19:03;100153.31;;;12.70;100.00
8160;BME280;27404;52.398;9.646;2022-09-09T04:21:30;100150.06;;;12.73;100.00
8160;BME280;27404;52.398;9.646;2022-09-09T04:23:56;100157.16;;;12.69;100.00
8160;BME280;27404;52.398;9.646;2022-09-09T04:26:22;100150.84;;;12.68;100.00
8160;BME280;27404;52.398;9.646;2022-09-09T04:28:47;100154.16;;;12.70;100.00
8160;BME280;27404;52.398;9.646;2022-09-09T04:31:20;100151.16;;;12.72;100.00
8160;BME280;27404;52.398;9.646;2022-09-09T04:33:49;100153.13;;;12.77;100.00
8160;BME280;27404;52.398;9.646;2022-09-09T04:36:15;100167.94;;;12.76;100.00
8160;BME280;27404;52.398;9.646;2022-09-09T04:38:40;100155.88;;;12.77;100.00
8160;BME280;27404;52.398;9.646;2022-09-09T04:41:06;100160.56;;;12.81;100.00
8160;BME280;27404;52.398;9.646;2022-09-09T04:43:32;100165.28;;;12.86;100.00
8160;BME280;27404;52.398;9.646;2022-09-09T04:45:58;100160.91;;;12.90;100.00
8160;BME280;27404;52.398;9.646;2022-09-09T04:48:26;100163.41;;;12.97;100.00
8160;BME280;27404;52.398;9.646;2022-09-09T04:51:01;100157.13;;;13.01;100.00
8160;BME280;27404;52.398;9.646;2022-09-09T04:53:28;100164.53;;;13.01;100.00
8160;BME280;27404;52.398;9.646;2022-09-09T04:56:04;100178.53;;;13.04;100.00
8160;BME280;27404;52.398;9.646;2022-09-09T04:58:30;100169.22;;;13.06;100.00
8160;BME280;27404;52.398;9.646;2022-09-09T05:01:12;100167.56;;;13.04;100.00
8160;BME280;27404;52.398;9.646;2022-09-09T05:03:38;100163.44;;;13.02;100.00
8160;BME280;27404;52.398;9.646;2022-09-09T05:06:09;100171.16;;;13.05;100.00
8160;BME280;27404;52.398;9.646;2022-09-09T05:08:37;100178.31;;;13.06;100.00
8160;BME280;27404;52.398;9.646;2022-09-09T05:11:03;100171.16;;;13.05;100.00
8160;BME280;27404;52.398;9.646;2022-09-09T05:13:29;100168.97;;;13.07;100.00
8160;BME280;27404;52.398;9.646;2022-09-09T05:15:56;100179.16;;;13.12;100.00
8160;BME280;27404;52.398;9.646;2022-09-09T05:18:22;100180.28;;;13.16;100.00
8160;BME280;27404;52.398;9.646;2022-09-09T05:20:48;100183.06;;;13.21;100.00
8160;BME280;27404;52.398;9.646;2022-09-09T05:23:14;100190.19;;;13.22;100.00
8160;BME280;27404;52.398;9.646;2022-09-09T05:25:39;100188.88;;;13.30;100.00
8160;BME280;27404;52.398;9.646;2022-09-09T05:28:08;100194.69;;;13.39;100.00
8160;BME280;27404;52.398;9.646;2022-09-09T05:30:34;100181.78;;;13.39;100.00
8160;BME280;27404;52.398;9.646;2022-09-09T05:32:59;100187.34;;;13.44;100.00
8160;BME280;27404;52.398;9.646;2022-09-09T05:35:25;100192.06;;;13.49;100.00
8160;BME280;27404;52.398;9.646;2022-09-09T05:37:50;100194.53;;;13.56;100.00
8160;BME280;27404;52.398;9.646;2022-09-09T05:40:16;100189.63;;;13.58;100.00
8160;BME280;27404;52.398;9.646;2022-09-09T05:42:41;100188.81;;;13.57;100.00
8160;BME280;27404;52.398;9.646;2022-09-09T05:45:08;100188.25;;;13.60;100.00
8160;BME280;27404;52.398;9.646;2022-09-09T05:47:34;100190.44;;;13.63;100.00
8160;BME280;27404;52.398;9.646;2022-09-09T05:49:59;100197.91;;;13.68;100.00
8160;BME280;27404;52.398;9.646;2022-09-09T05:52:25;100193.25;;;13.74;100.00
8160;BME280;27404;52.398;9.646;2022-09-09T05:54:52;100198.22;;;13.82;100.00
8160;BME280;27404;52.398;9.646;2022-09-09T05:57:18;100198.00;;;13.94;100.00
8160;BME280;27404;52.398;9.646;2022-09-09T05:59:44;100204.38;;;14.05;100.00
8160;BME280;27404;52.398;9.646;2022-09-09T06:02:10;100203.84;;;14.08;100.00
8160;BME280;27404;52.398;9.646;2022-09-09T06:04:35;100198.34;;;14.13;100.00
8160;BME280;27404;52.398;9.646;2022-09-09T06:07:01;100202.22;;;14.12;100.00
8160;BME280;27404;52.398;9.646;2022-09-09T06:09:26;100203.84;;;14.08;100.00
8160;BME280;27404;52.398;9.646;2022-09-09T06:11:51;100201.31;;;14.01;100.00
8160;BME280;27404;52.398;9.646;2022-09-09T06:14:17;100195.81;;;14.01;100.00
8160;BME280;27404;52.398;9.646;2022-09-09T06:16:46;100194.50;;;14.09;100.00
8160;BME280;27404;52.398;9.646;2022-09-09T06:19:11;100200.28;;;14.18;100.00
8160;BME280;27404;52.398;9.646;2022-09-09T06:21:38;100202.22;;;14.33;100.00
8160;BME280;27404;52.398;9.646;2022-09-09T06:24:04;100203.66;;;14.46;100.00
8160;BME280;27404;52.398;9.646;2022-09-09T06:26:34;100192.94;;;14.55;100.00
8160;BME280;27404;52.398;9.646;2022-09-09T06:29:01;100202.84;;;14.66;100.00
8160;BME280;27404;52.398;9.646;2022-09-09T06:31:30;100201.25;;;14.80;100.00
8160;BME280;27404;52.398;9.646;2022-09-09T06:33:57;100205.06;;;14.95;100.00
8160;BME280;27404;52.398;9.646;2022-09-09T06:36:29;100199.00;;;15.08;100.00
8160;BME280;27404;52.398;9.646;2022-09-09T06:38:55;100203.97;;;15.17;100.00
8160;BME280;27404;52.398;9.646;2022-09-09T06:41:23;100216.63;;;15.18;100.00
8160;BME280;27404;52.398;9.646;2022-09-09T06:43:49;100207.00;;;15.15;100.00
8160;BME280;27404;52.398;9.646;2022-09-09T06:48:44;100196.50;;;15.28;100.00
8160;BME280;27404;52.398;9.646;2022-09-09T06:51:13;100204.75;;;15.38;100.00
8160;BME280;27404;52.398;9.646;2022-09-09T06:53:40;100200.56;;;15.61;100.00
8160;BME280;27404;52.398;9.646;2022-09-09T06:58:39;100202.88;;;16.54;100.00
8160;BME280;27404;52.398;9.646;2022-09-09T07:01:10;100215.28;;;16.97;100.00
8160;BME280;27404;52.398;9.646;2022-09-09T07:03:38;100219.13;;;17.30;100.00
8160;BME280;27404;52.398;9.646;2022-09-09T07:06:05;100215.09;;;17.47;100.00
8160;BME280;27404;52.398;9.646;2022-09-09T07:08:31;100214.03;;;17.67;100.00
8160;BME280;27404;52.398;9.646;2022-09-09T07:11:03;100223.84;;;17.79;100.00
8160;BME280;27404;52.398;9.646;2022-09-09T07:13:30;100216.94;;;17.81;100.00
8160;BME280;27404;52.398;9.646;2022-09-09T07:16:06;100227.34;;;18.14;100.00
8160;BME280;27404;52.398;9.646;2022-09-09T07:18:32;100218.13;;;18.18;100.00
8160;BME280;27404;52.398;9.646;2022-09-09T07:20:58;100214.91;;;18.30;100.00
8160;BME280;27404;52.398;9.646;2022-09-09T07:23:24;100210.44;;;18.15;100.00
8160;BME280;27404;52.398;9.646;2022-09-09T07:25:50;100215.38;;;17.94;100.00
8160;BME280;27404;52.398;9.646;2022-09-09T07:28:17;100215.94;;;17.72;100.00
8160;BME280;27404;52.398;9.646;2022-09-09T07:30:42;100221.78;;;17.65;100.00
8160;BME280;27404;52.398;9.646;2022-09-09T07:33:09;100221.41;;;17.53;100.00
8160;BME280;27404;52.398;9.646;2022-09-09T07:35:37;100221.56;;;17.37;100.00
8160;BME280;27404;52.398;9.646;2022-09-09T07:38:03;100219.28;;;17.15;100.00
8160;BME280;27404;52.398;9.646;2022-09-09T07:40:32;100221.69;;;17.22;100.00
8160;BME280;27404;52.398;9.646;2022-09-09T07:42:59;100219.81;;;17.17;100.00
8160;BME280;27404;52.398;9.646;2022-09-09T07:45:25;100225.63;;;17.15;100.00
8160;BME280;27404;52.398;9.646;2022-09-09T07:47:53;100218.97;;;17.16;100.00
8160;BME280;27404;52.398;9.646;2022-09-09T07:50:19;100225.34;;;17.17;100.00
8160;BME280;27404;52.398;9.646;2022-09-09T07:52:44;100218.41;;;17.20;100.00
8160;BME280;27404;52.398;9.646;2022-09-09T07:55:10;100224.53;;;17.11;100.00
8160;BME280;27404;52.398;9.646;2022-09-09T07:57:35;100225.34;;;17.17;100.00
8160;BME280;27404;52.398;9.646;2022-09-09T08:00:03;100225.00;;;17.24;100.00
8160;BME280;27404;52.398;9.646;2022-09-09T08:02:28;100229.63;;;17.28;100.00
8160;BME280;27404;52.398;9.646;2022-09-09T08:04:55;100223.53;;;17.31;100.00
8160;BME280;27404;52.398;9.646;2022-09-09T08:07:21;100230.91;;;17.41;100.00
8160;BME280;27404;52.398;9.646;2022-09-09T08:09:47;100223.63;;;17.51;100.00
8160;BME280;27404;52.398;9.646;2022-09-09T08:12:13;100228.03;;;17.52;100.00
8160;BME280;27404;52.398;9.646;2022-09-09T08:14:39;100227.78;;;17.48;100.00
8160;BME280;27404;52.398;9.646;2022-09-09T08:17:05;100221.78;;;17.41;100.00
8160;BME280;27404;52.398;9.646;2022-09-09T08:19:31;100235.59;;;17.65;100.00
8160;BME280;27404;52.398;9.646;2022-09-09T08:21:59;100226.94;;;18.01;100.00
8160;BME280;27404;52.398;9.646;2022-09-09T08:24:27;100243.13;;;18.32;100.00
8160;BME280;27404;52.398;9.646;2022-09-09T08:26:52;100235.25;;;18.20;100.00
8160;BME280;27404;52.398;9.646;2022-09-09T08:29:18;100238.56;;;18.23;100.00
8160;BME280;27404;52.398;9.646;2022-09-09T08:31:55;100238.56;;;18.23;100.00
8160;BME280;27404;52.398;9.646;2022-09-09T08:34:23;100241.56;;;18.64;100.00
8160;BME280;27404;52.398;9.646;2022-09-09T08:36:50;100248.66;;;18.90;100.00
8160;BME280;27404;52.398;9.646;2022-09-09T08:39:18;100253.13;;;19.05;100.00
8160;BME280;27404;52.398;9.646;2022-09-09T08:57:53;100274.66;;;20.30;99.53
8160;BME280;27404;52.398;9.646;2022-09-09T09:00:20;100283.69;;;20.50;96.97
8160;BME280;27404;52.398;9.646;2022-09-09T09:03:06;100268.09;;;20.26;97.27
8160;BME280;27404;52.398;9.646;2022-09-09T09:05:54;100273.25;;;20.19;96.84
8160;BME280;27404;52.398;9.646;2022-09-09T09:08:39;100281.78;;;20.08;96.88
8160;BME280;27404;52.398;9.646;2022-09-09T09:11:08;100286.09;;;20.15;96.55
8160;BME280;27404;52.398;9.646;2022-09-09T09:16:10;100280.44;;;20.34;98.39
8160;BME280;27404;52.398;9.646;2022-09-09T09:18:39;100274.88;;;20.06;98.29
8160;BME280;27404;52.398;9.646;2022-09-09T09:21:39;100277.41;;;19.88;97.94
8160;BME280;27404;52.398;9.646;2022-09-09T09:23:58;100276.38;;;19.56;100.00
8160;BME280;27404;52.398;9.646;2022-09-09T09:26:30;100278.88;;;19.86;100.00
8160;BME280;27404;52.398;9.646;2022-09-09T09:28:59;100275.13;;;19.48;100.00
8160;BME280;27404;52.398;9.646;2022-09-09T09:31:26;100272.88;;;19.50;100.00
8160;BME280;27404;52.398;9.646;2022-09-09T09:33:55;100267.59;;;19.82;100.00
8160;BME280;27404;52.398;9.646;2022-09-09T09:36:34;100272.50;;;19.85;98.13
8160;BME280;27404;52.398;9.646;2022-09-09T09:39:01;100271.59;;;19.90;98.94
8160;BME280;27404;52.398;9.646;2022-09-09T09:41:32;100266.94;;;20.27;98.00
8160;BME280;27404;52.398;9.646;2022-09-09T09:43:59;100266.16;;;20.63;96.62
8160;BME280;27404;52.398;9.646;2022-09-09T09:46:26;100264.47;;;20.76;95.01
8160;BME280;27404;52.398;9.646;2022-09-09T09:48:59;100266.56;;;20.70;92.13
8160;BME280;27404;52.398;9.646;2022-09-09T09:51:26;100272.97;;;20.57;92.44
8160;BME280;27404;52.398;9.646;2022-09-09T09:53:53;100258.91;;;20.76;92.20
8160;BME280;27404;52.398;9.646;2022-09-09T09:56:27;100257.91;;;20.86;90.82
8160;BME280;27404;52.398;9.646;2022-09-09T09:58:58;100261.28;;;20.46;92.10
8160;BME280;27404;52.398;9.646;2022-09-09T10:01:32;100259.72;;;20.91;92.60
8160;BME280;27404;52.398;9.646;2022-09-09T10:04:15;100260.78;;;21.04;90.01
8160;BME280;27404;52.398;9.646;2022-09-09T10:06:41;100252.13;;;21.59;89.65
8160;BME280;27404;52.398;9.646;2022-09-09T10:09:24;100250.31;;;21.86;85.39
8160;BME280;27404;52.398;9.646;2022-09-09T10:15:15;100254.75;;;21.96;82.66
8160;BME280;27404;52.398;9.646;2022-09-09T10:18:00;100257.69;;;21.91;83.82
8160;BME280;27404;52.398;9.646;2022-09-09T10:20:48;100254.72;;;21.87;81.62
8160;BME280;27404;52.398;9.646;2022-09-09T10:32:46;100244.09;;;21.26;86.40
8160;BME280;27404;52.398;9.646;2022-09-09T10:34:58;100244.66;;;21.37;84.36
8160;BME280;27404;52.398;9.646;2022-09-09T10:40:11;100242.25;;;21.22;82.89
8160;BME280;27404;52.398;9.646;2022-09-09T10:42:41;100239.28;;;21.09;82.42
8160;BME280;27404;52.398;9.646;2022-09-09T10:45:18;100239.94;;;21.15;83.49
8160;BME280;27404;52.398;9.646;2022-09-09T10:48:03;100249.94;;;21.16;85.63
8160;BME280;27404;52.398;9.646;2022-09-09T10:50:51;100245.03;;;20.76;85.86
8160;BME280;27404;52.398;9.646;2022-09-09T10:53:27;100258.34;;;20.65;88.47
8160;BME280;27404;52.398;9.646;2022-09-09T10:56:06;100261.81;;;20.71;89.12
8160;BME280;27404;52.398;9.646;2022-09-09T11:01:25;100252.56;;;20.39;87.74
8160;BME280;27404;52.398;9.646;2022-09-09T11:03:57;100241.06;;;20.32;88.43
8160;BME280;27404;52.398;9.646;2022-09-09T11:06:32;100239.81;;;20.24;89.11
8160;BME280;27404;52.398;9.646;2022-09-09T11:09:02;100249.59;;;20.21;89.86
8160;BME280;27404;52.398;9.646;2022-09-09T11:11:36;100258.66;;;20.13;90.98
8160;BME280;27404;52.398;9.646;2022-09-09T11:14:28;100262.75;;;20.02;90.84
8160;BME280;27404;52.398;9.646;2022-09-09T11:17:08;100262.03;;;19.82;94.51
8160;BME280;27404;52.398;9.646;2022-09-09T11:19:39;100243.00;;;19.75;95.10
8160;BME280;27404;52.398;9.646;2022-09-09T11:22:29;100245.25;;;19.73;97.83
8160;BME280;27404;52.398;9.646;2022-09-09T11:25:16;100244.47;;;19.73;99.78
8160;BME280;27404;52.398;9.646;2022-09-09T11:28:09;100259.13;;;19.73;100.00
8160;BME280;27404;52.398;9.646;2022-09-09T11:38:50;100273.84;;;19.27;100.00
8160;BME280;27404;52.398;9.646;2022-09-09T11:41:17;100268.38;;;19.21;100.00
8160;BME280;27404;52.398;9.646;2022-09-09T11:43:48;100269.38;;;19.12;100.00
8160;BME280;27404;52.398;9.646;2022-09-09T11:46:18;100265.44;;;18.99;99.43
8160;BME280;27404;52.398;9.646;2022-09-09T11:48:56;100261.66;;;18.89;98.09
8160;BME280;27404;52.398;9.646;2022-09-09T11:51:29;100271.47;;;18.82;100.00
8160;BME280;27404;52.398;9.646;2022-09-09T11:54:27;100266.84;;;18.58;97.74
8160;BME280;27404;52.398;9.646;2022-09-09T11:56:54;100262.53;;;18.52;97.89
8160;BME280;27404;52.398;9.646;2022-09-09T11:59:25;100252.94;;;18.44;97.92
8160;BME280;27404;52.398;9.646;2022-09-09T12:01:57;100254.38;;;18.41;99.27
8160;BME280;27404;52.398;9.646;2022-09-09T12:06:54;100255.75;;;18.39;100.00
8160;BME280;27404;52.398;9.646;2022-09-09T12:09:29;100259.25;;;18.25;100.00
8160;BME280;27404;52.398;9.646;2022-09-09T12:12:33;100261.94;;;18.11;100.00
8160;BME280;27404;52.398;9.646;2022-09-09T12:15:00;100262.31;;;18.04;100.00
8160;BME280;27404;52.398;9.646;2022-09-09T12:17:28;100258.47;;;18.00;100.00
8160;BME280;27404;52.398;9.646;2022-09-09T12:20:21;100268.53;;;18.15;100.00
8160;BME280;27404;52.398;9.646;2022-09-09T12:23:15;100269.53;;;18.44;100.00
8160;BME280;27404;52.398;9.646;2022-09-09T12:28:18;100275.84;;;19.40;100.00
8160;BME280;27404;52.398;9.646;2022-09-09T12:30:47;100275.56;;;19.70;95.00
8160;BME280;27404;52.398;9.646;2022-09-09T12:33:17;100266.34;;;20.16;92.24
8160;BME280;27404;52.398;9.646;2022-09-09T12:35:47;100271.22;;;20.61;90.14
8160;BME280;27404;52.398;9.646;2022-09-09T12:38:53;100265.47;;;21.17;87.78
8160;BME280;27404;52.398;9.646;2022-09-09T12:41:23;100258.06;;;21.67;82.00
8160;BME280;27404;52.398;9.646;2022-09-09T12:43:49;100253.94;;;21.96;81.91
8160;BME280;27404;52.398;9.646;2022-09-09T12:46:38;100251.38;;;22.08;77.01
8160;BME280;27404;52.398;9.646;2022-09-09T12:49:05;100248.59;;;22.08;78.50
8160;BME280;27404;52.398;9.646;2022-09-09T12:51:49;100249.44;;;22.17;74.00
8160;BME280;27404;52.398;9.646;2022-09-09T12:54:15;100245.16;;;22.29;75.30
8160;BME280;27404;52.398;9.646;2022-09-09T12:56:45;100241.19;;;21.95;77.01
8160;BME280;27404;52.398;9.646;2022-09-09T12:59:24;100244.63;;;22.00;79.98
8160;BME280;27404;52.398;9.646;2022-09-09T13:01:57;100240.59;;;22.15;78.68
8160;BME280;27404;52.398;9.646;2022-09-09T13:04:23;100240.41;;;22.12;74.20
8160;BME280;27404;52.398;9.646;2022-09-09T13:06:48;100241.38;;;22.16;73.68
8160;BME280;27404;52.398;9.646;2022-09-09T13:09:14;100228.06;;;21.95;74.52
8160;BME280;27404;52.398;9.646;2022-09-09T13:11:54;100236.75;;;22.02;76.03
8160;BME280;27404;52.398;9.646;2022-09-09T13:14:48;100240.31;;;21.77;80.75
8160;BME280;27404;52.398;9.646;2022-09-09T13:17:21;100229.31;;;21.40;83.42
8160;BME280;27404;52.398;9.646;2022-09-09T13:19:48;100222.81;;;21.22;86.02
8160;BME280;27404;52.398;9.646;2022-09-09T13:27:34;100218.41;;;20.38;92.07
8160;BME280;27404;52.398;9.646;2022-09-09T13:35:27;100221.94;;;19.88;97.71
8160;BME280;27404;52.398;9.646;2022-09-09T13:37:53;100222.28;;;19.73;99.07
8160;BME280;27404;52.398;9.646;2022-09-09T13:40:22;100216.59;;;19.64;100.00
8160;BME280;27404;52.398;9.646;2022-09-09T13:42:52;100213.03;;;19.49;100.00
8160;BME280;27404;52.398;9.646;2022-09-09T13:45:22;100214.34;;;19.38;100.00
8160;BME280;27404;52.398;9.646;2022-09-09T13:47:49;100207.53;;;19.30;100.00
8160;BME280;27404;52.398;9.646;2022-09-09T13:52:53;100207.78;;;19.48;100.00
8160;BME280;27404;52.398;9.646;2022-09-09T13:55:23;100202.75;;;19.78;100.00
8160;BME280;27404;52.398;9.646;2022-09-09T13:57:59;100197.31;;;20.01;100.00
8160;BME280;27404;52.398;9.646;2022-09-09T14:00:26;100201.78;;;20.24;97.80
8160;BME280;27404;52.398;9.646;2022-09-09T14:02:53;100204.84;;;20.37;98.13
8160;BME280;27404;52.398;9.646;2022-09-09T14:05:20;100205.25;;;20.44;96.06
8160;BME280;27404;52.398;9.646;2022-09-09T14:07:48;100215.63;;;20.52;95.41
8160;BME280;27404;52.398;9.646;2022-09-09T14:10:14;100201.66;;;20.66;93.89
8160;BME280;27404;52.398;9.646;2022-09-09T14:12:39;100192.78;;;20.78;93.86
8160;BME280;27404;52.398;9.646;2022-09-09T14:15:07;100199.78;;;20.98;92.85
8160;BME280;27404;52.398;9.646;2022-09-09T14:17:33;100198.09;;;21.11;92.04
8160;BME280;27404;52.398;9.646;2022-09-09T14:19:59;100199.00;;;21.29;90.00
8160;BME280;27404;52.398;9.646;2022-09-09T14:22:24;100205.72;;;21.37;88.36
8160;BME280;27404;52.398;9.646;2022-09-09T14:24:51;100191.91;;;21.55;87.34
8160;BME280;27404;52.398;9.646;2022-09-09T14:27:17;100197.59;;;21.81;84.89
8160;BME280;27404;52.398;9.646;2022-09-09T14:29:44;100187.16;;;21.96;83.61
8160;BME280;27404;52.398;9.646;2022-09-09T14:32:10;100189.25;;;21.90;81.46
8160;BME280;27404;52.398;9.646;2022-09-09T14:34:36;100191.88;;;21.95;81.50
8160;BME280;27404;52.398;9.646;2022-09-09T14:37:02;100193.41;;;22.10;80.78
8160;BME280;27404;52.398;9.646;2022-09-09T14:39:28;100190.47;;;22.15;79.75
8160;BME280;27404;52.398;9.646;2022-09-09T14:41:53;100192.59;;;22.18;79.91
8160;BME280;27404;52.398;9.646;2022-09-09T14:44:18;100190.50;;;22.42;79.20
8160;BME280;27404;52.398;9.646;2022-09-09T14:46:44;100194.44;;;22.76;75.30
8160;BME280;27404;52.398;9.646;2022-09-09T14:49:10;100193.78;;;22.70;73.94
8160;BME280;27404;52.398;9.646;2022-09-09T14:51:36;100193.13;;;22.73;73.50
8160;BME280;27404;52.398;9.646;2022-09-09T14:54:02;100193.78;;;22.70;74.25
8160;BME280;27404;52.398;9.646;2022-09-09T14:56:29;100196.41;;;22.67;72.69
8160;BME280;27404;52.398;9.646;2022-09-09T14:58:57;100190.19;;;22.52;71.95